Time;durP1;ratioP1;P1;durP2;ratioP2;P2;SDS_P1;SDS_P2;PMS_P1;PMS_P2;Temp;Humidity;BMP_temperature;BMP_pressure;BME280_temperature;BME280_humidity;BME280_pressure;Samples;Min_cycle;Max_cycle;Signal;HPM_P1;HPM_P2
2022/05/08 00:00:58;;;;;;;6.30;5.80;;;12.70;99.90;;;;;;5088311;28;20036;-83
2022/05/08 00:03:23;;;;;;;6.60;6.00;;;12.70;99.90;;;;;;5087459;28;20021;-83
2022/05/08 00:05:49;;;;;;;9.88;8.88;;;12.70;99.90;;;;;;5087241;28;20024;-83
2022/05/08 00:08:15;;;;;;;10.90;9.43;;;12.70;99.90;;;;;;5087763;28;20115;-82
2022/05/08 00:10:41;;;;;;;10.18;8.85;;;12.70;99.90;;;;;;5087890;28;20028;-82
2022/05/08 00:13:09;;;;;;;11.80;10.30;;;12.60;99.90;;;;;;5087855;28;20029;-82
2022/05/08 00:15:35;;;;;;;12.30;10.60;;;12.60;99.90;;;;;;5087707;28;20467;-83
2022/05/08 00:18:01;;;;;;;12.82;11.52;;;12.60;99.90;;;;;;5086217;28;20033;-83
2022/05/08 00:20:27;;;;;;;13.98;12.45;;;12.60;99.90;;;;;;5068738;28;20028;-83
2022/05/08 00:22:53;;;;;;;12.27;10.90;;;12.60;99.90;;;;;;5087445;28;20074;-83
2022/05/08 00:25:20;;;;;;;11.77;10.50;;;12.60;99.90;;;;;;5077121;28;20032;-83
2022/05/08 00:27:45;;;;;;;13.07;11.75;;;12.60;99.90;;;;;;5079957;28;20024;-83
2022/05/08 00:30:12;;;;;;;13.07;11.20;;;12.60;99.90;;;;;;5086425;28;20035;-83
2022/05/08 00:32:38;;;;;;;11.32;10.13;;;12.60;99.90;;;;;;5086381;28;20024;-83
2022/05/08 00:35:04;;;;;;;11.02;9.93;;;12.50;99.90;;;;;;5086168;28;20038;-83
2022/05/08 00:37:30;;;;;;;11.18;10.07;;;12.50;99.90;;;;;;5078340;28;20485;-82
2022/05/08 00:39:55;;;;;;;11.75;10.48;;;12.50;99.90;;;;;;5064975;28;20025;-82
2022/05/08 00:42:21;;;;;;;12.82;11.52;;;12.40;99.90;;;;;;5065403;28;20029;-83
2022/05/08 00:44:47;;;;;;;15.57;13.70;;;12.40;99.90;;;;;;5066742;28;20029;-82
2022/05/08 00:47:12;;;;;;;19.50;16.73;;;12.40;99.90;;;;;;5066264;28;20388;-82
2022/05/08 00:49:38;;;;;;;23.30;18.60;;;12.40;99.90;;;;;;5046858;28;20025;-81
2022/05/08 00:52:05;;;;;;;22.60;18.92;;;12.30;99.90;;;;;;5066720;28;20074;-82
2022/05/08 00:54:31;;;;;;;25.05;21.02;;;12.30;99.90;;;;;;5084825;28;20047;-83
2022/05/08 00:56:57;;;;;;;25.15;20.42;;;12.30;99.90;;;;;;5069147;28;20048;-80
2022/05/08 00:59:24;;;;;;;25.05;20.35;;;12.30;99.90;;;;;;5066172;28;20319;-83
2022/05/08 01:01:50;;;;;;;27.73;22.83;;;12.30;99.90;;;;;;5087846;28;20170;-82
2022/05/08 01:04:16;;;;;;;23.23;18.83;;;12.30;99.90;;;;;;5069488;28;20028;-83
2022/05/08 01:06:43;;;;;;;25.40;19.48;;;12.30;99.90;;;;;;5084237;28;20024;-82
2022/05/08 01:09:09;;;;;;;21.95;18.23;;;12.30;99.90;;;;;;5070239;28;20379;-82
2022/05/08 01:11:36;;;;;;;26.50;21.52;;;12.30;99.90;;;;;;5085954;28;20040;-82
2022/05/08 01:14:02;;;;;;;28.20;21.60;;;12.30;99.90;;;;;;5067901;28;20058;-83
2022/05/08 01:16:27;;;;;;;24.52;21.33;;;12.30;99.90;;;;;;5069747;28;20032;-82
2022/05/08 01:18:53;;;;;;;26.95;22.13;;;12.30;99.90;;;;;;5084308;28;20252;-82
2022/05/08 01:21:28;;;;;;;29.10;23.52;;;12.30;99.90;;;;;;5081740;28;20069;-82
2022/05/08 01:23:54;;;;;;;29.10;23.77;;;12.30;99.90;;;;;;5071149;28;20020;-82
2022/05/08 01:26:24;;;;;;;27.08;22.17;;;12.20;99.90;;;;;;5082024;28;20021;-82
2022/05/08 01:28:50;;;;;;;29.13;23.23;;;12.20;99.90;;;;;;5073147;28;20086;-83
2022/05/08 01:31:15;;;;;;;24.02;19.95;;;12.20;99.90;;;;;;5092208;28;20033;-82
2022/05/08 01:33:41;;;;;;;25.70;21.17;;;12.10;99.90;;;;;;5071253;28;20407;-83
2022/05/08 01:36:07;;;;;;;23.42;19.42;;;12.10;99.90;;;;;;5086127;28;20050;-82
2022/05/08 01:38:33;;;;;;;22.00;18.42;;;12.10;99.90;;;;;;5085254;28;20032;-82
2022/05/08 01:41:03;;;;;;;21.92;17.55;;;12.10;99.90;;;;;;5086716;28;20464;-82
2022/05/08 01:43:36;;;;;;;17.15;15.25;;;12.10;99.90;;;;;;5067353;28;20032;-81
2022/05/08 01:46:03;;;;;;;21.33;18.67;;;12.10;99.90;;;;;;5084706;28;20040;-82
2022/05/08 01:48:30;;;;;;;20.95;17.38;;;12.20;99.90;;;;;;5085236;28;20025;-82
2022/05/08 01:50:59;;;;;;;19.60;17.20;;;12.20;99.90;;;;;;5067492;28;20066;-82
2022/05/08 01:53:26;;;;;;;16.85;15.05;;;12.20;99.90;;;;;;5089799;28;20024;-80
2022/05/08 01:55:56;;;;;;;21.63;18.73;;;12.20;99.90;;;;;;5088120;28;20028;-83
2022/05/08 01:58:27;;;;;;;19.80;17.15;;;12.20;99.90;;;;;;5089489;28;20179;-81
2022/05/08 02:00:54;;;;;;;20.35;15.77;;;12.30;99.90;;;;;;5071621;28;20515;-81
2022/05/08 02:03:22;;;;;;;17.40;15.38;;;12.20;99.90;;;;;;5094770;28;20021;-82
2022/05/08 02:05:48;;;;;;;21.05;17.10;;;12.20;99.90;;;;;;5094648;28;20024;-82
2022/05/08 02:08:14;;;;;;;21.55;18.58;;;12.20;99.90;;;;;;5094771;28;20092;-82
2022/05/08 02:10:40;;;;;;;20.90;17.88;;;12.20;99.90;;;;;;5086356;28;20076;-82
2022/05/08 02:13:07;;;;;;;20.23;17.25;;;12.20;99.90;;;;;;5074523;28;20025;-82
2022/05/08 02:15:33;;;;;;;21.20;18.05;;;12.20;99.90;;;;;;5074812;28;20068;-81
2022/05/08 02:18:04;;;;;;;22.13;19.48;;;12.20;99.90;;;;;;5071890;28;20037;-83
2022/05/08 02:20:31;;;;;;;24.00;19.92;;;12.20;99.90;;;;;;5069254;28;20028;-81
2022/05/08 02:22:57;;;;;;;21.95;17.67;;;12.20;99.90;;;;;;5058692;28;20071;-82
2022/05/08 02:25:24;;;;;;;23.67;19.50;;;12.20;99.90;;;;;;5065479;28;20016;-82
2022/05/08 02:27:51;;;;;;;21.67;18.35;;;12.10;99.90;;;;;;5074458;28;20050;-82
2022/05/08 02:30:20;;;;;;;23.25;20.33;;;12.10;99.90;;;;;;5075255;28;20028;-82
2022/05/08 02:32:46;;;;;;;20.55;16.17;;;12.10;99.90;;;;;;5092621;28;20028;-81
2022/05/08 02:35:12;;;;;;;22.80;17.42;;;12.10;99.90;;;;;;5071755;28;20025;-81
2022/05/08 02:37:40;;;;;;;27.48;21.23;;;12.10;99.90;;;;;;5093027;28;20091;-83
2022/05/08 02:40:08;;;;;;;27.35;20.48;;;12.10;99.90;;;;;;5084105;28;20028;-81
2022/05/08 02:42:35;;;;;;;26.73;21.38;;;12.10;99.90;;;;;;5058813;28;20033;-83
2022/05/08 02:45:01;;;;;;;28.17;22.83;;;12.10;99.90;;;;;;5058317;28;20083;-82
2022/05/08 02:47:27;;;;;;;28.23;23.02;;;12.10;99.90;;;;;;5071171;28;20049;-82
2022/05/08 02:49:53;;;;;;;29.77;24.80;;;12.10;99.90;;;;;;5064465;28;20029;-83
2022/05/08 02:52:19;;;;;;;30.77;24.05;;;12.10;99.90;;;;;;5066220;28;20071;-83
2022/05/08 02:54:44;;;;;;;34.00;24.30;;;12.10;99.90;;;;;;5084900;28;20025;-83
2022/05/08 02:59:55;;;;;;;32.65;26.25;;;12.10;99.90;;;;;;5080182;28;20108;-83
2022/05/08 03:02:20;;;;;;;32.85;23.95;;;12.10;99.90;;;;;;5047287;28;20036;-83
2022/05/08 03:04:46;;;;;;;30.23;24.38;;;12.20;99.90;;;;;;5084425;28;20455;-83
2022/05/08 03:07:13;;;;;;;32.65;25.40;;;12.20;99.90;;;;;;5084426;28;20059;-83
2022/05/08 03:09:39;;;;;;;29.85;23.75;;;12.20;99.90;;;;;;5083551;28;20017;-82
2022/05/08 03:12:05;;;;;;;29.83;23.42;;;12.20;99.90;;;;;;5064318;28;20112;-82
2022/05/08 03:14:31;;;;;;;31.48;24.98;;;12.20;99.90;;;;;;5067290;28;20024;-83
2022/05/08 03:16:57;;;;;;;33.15;25.20;;;12.20;99.90;;;;;;5057357;28;20203;-82
2022/05/08 03:19:25;;;;;;;29.15;23.75;;;12.10;99.90;;;;;;5058427;28;20024;-82
2022/05/08 03:21:51;;;;;;;28.40;21.83;;;12.10;99.90;;;;;;5059950;28;20032;-82
2022/05/08 03:24:17;;;;;;;29.77;23.02;;;12.20;99.90;;;;;;5075043;28;20017;-82
2022/05/08 03:26:43;;;;;;;28.35;23.45;;;12.10;99.90;;;;;;5085117;28;20554;-82
2022/05/08 03:29:09;;;;;;;31.95;23.65;;;12.20;99.90;;;;;;5067057;28;20036;-82
2022/05/08 03:31:35;;;;;;;32.55;25.75;;;12.10;99.90;;;;;;5077927;28;20029;-82
2022/05/08 03:34:00;;;;;;;27.88;22.70;;;12.10;99.90;;;;;;5066917;28;20029;-82
2022/05/08 03:36:26;;;;;;;29.35;23.02;;;12.10;99.90;;;;;;5066114;28;20068;-81
2022/05/08 03:38:52;;;;;;;33.75;26.02;;;12.10;99.90;;;;;;5065407;28;20033;-82
2022/05/08 03:41:19;;;;;;;30.15;24.20;;;12.20;99.90;;;;;;5067359;28;20045;-82
2022/05/08 03:43:46;;;;;;;27.58;22.00;;;12.20;99.90;;;;;;5048176;28;20024;-81
2022/05/08 03:46:15;;;;;;;37.15;27.67;;;12.20;99.90;;;;;;5047715;28;20036;-83
2022/05/08 03:48:41;;;;;;;32.15;23.92;;;12.20;99.90;;;;;;5047680;28;20021;-82
2022/05/08 03:51:08;;;;;;;27.08;22.13;;;12.20;99.90;;;;;;5048829;28;20025;-82
2022/05/08 03:53:34;;;;;;;28.00;23.00;;;12.20;99.90;;;;;;5059269;28;20781;-82
2022/05/08 03:55:59;;;;;;;30.73;24.48;;;12.20;99.90;;;;;;5069991;28;20021;-83
2022/05/08 03:58:26;;;;;;;27.77;23.02;;;12.20;99.90;;;;;;5064694;28;20404;-82
2022/05/08 04:00:52;;;;;;;31.20;24.88;;;12.20;99.90;;;;;;5066836;28;20036;-82
2022/05/08 04:03:18;;;;;;;31.95;24.13;;;12.20;99.90;;;;;;5066112;28;20029;-82
2022/05/08 04:05:43;;;;;;;31.80;25.27;;;12.30;99.90;;;;;;5054354;28;20092;-82
2022/05/08 04:08:09;;;;;;;30.52;23.42;;;12.20;99.90;;;;;;5086840;28;20064;-82
2022/05/08 04:10:35;;;;;;;28.40;23.25;;;12.30;99.90;;;;;;5085482;28;20072;-83
2022/05/08 04:13:01;;;;;;;28.80;24.48;;;12.20;99.90;;;;;;5067434;28;20028;-82
2022/05/08 04:18:10;;;;;;;28.17;24.33;;;12.30;99.90;;;;;;5086212;28;20439;-82
2022/05/08 04:20:36;;;;;;;26.42;21.08;;;12.30;99.90;;;;;;5081409;28;20036;-82
2022/05/08 04:25:51;;;;;;;31.10;23.65;;;12.30;99.90;;;;;;5077855;28;20107;-81
2022/05/08 04:28:19;;;;;;;29.08;22.80;;;12.30;99.90;;;;;;5085802;28;20024;-83
2022/05/08 04:30:45;;;;;;;26.27;20.70;;;12.30;99.90;;;;;;5086663;28;20043;-82
2022/05/08 04:33:10;;;;;;;28.40;24.05;;;12.40;99.90;;;;;;5087556;28;20037;-85
2022/05/08 04:35:36;;;;;;;27.60;24.40;;;12.30;99.90;;;;;;5081152;28;20031;-82
2022/05/08 04:38:02;;;;;;;24.90;20.98;;;12.30;99.90;;;;;;5075347;28;20017;-83
2022/05/08 04:40:28;;;;;;;28.25;23.73;;;12.40;99.90;;;;;;5085847;28;20104;-83
2022/05/08 04:42:54;;;;;;;25.48;21.75;;;12.40;99.90;;;;;;5102247;28;20109;-82
2022/05/08 04:45:20;;;;;;;26.98;23.48;;;12.40;99.90;;;;;;5076522;28;20075;-83
2022/05/08 04:47:45;;;;;;;23.55;21.10;;;12.40;99.90;;;;;;5091142;28;20079;-84
2022/05/08 04:50:11;;;;;;;24.05;21.25;;;12.50;99.90;;;;;;5094792;28;20031;-83
2022/05/08 04:52:37;;;;;;;29.88;25.42;;;12.50;99.90;;;;;;5095635;28;20028;-83
2022/05/08 04:55:04;;;;;;;30.83;25.23;;;12.50;99.90;;;;;;5085355;28;20029;-83
2022/05/08 04:57:30;;;;;;;25.40;21.55;;;12.50;99.90;;;;;;5080615;28;20032;-84
2022/05/08 04:59:57;;;;;;;26.30;23.05;;;12.50;99.90;;;;;;5095401;28;20024;-82
2022/05/08 05:02:23;;;;;;;28.58;23.85;;;12.60;99.90;;;;;;5095649;28;20048;-83
2022/05/08 05:04:48;;;;;;;27.83;23.13;;;12.60;99.90;;;;;;5096353;28;20031;-82
2022/05/08 05:07:14;;;;;;;26.98;24.02;;;12.60;99.90;;;;;;5078810;28;20024;-83
2022/05/08 05:09:40;;;;;;;26.35;22.75;;;12.60;99.90;;;;;;5078109;28;20066;-82
2022/05/08 05:12:06;;;;;;;26.10;22.90;;;12.70;99.90;;;;;;5095517;28;20032;-81
2022/05/08 05:14:32;;;;;;;24.90;21.65;;;12.70;99.90;;;;;;5077314;28;20024;-82
2022/05/08 05:17:00;;;;;;;22.80;19.65;;;12.80;99.90;;;;;;5095572;28;20037;-81
2022/05/08 05:19:26;;;;;;;26.77;22.95;;;12.80;99.90;;;;;;5093729;28;20020;-82
2022/05/08 05:21:52;;;;;;;23.17;20.58;;;12.80;99.90;;;;;;5095385;28;20029;-83
2022/05/08 05:24:18;;;;;;;22.17;17.85;;;12.90;99.90;;;;;;5094132;28;20073;-82
2022/05/08 05:26:43;;;;;;;22.38;19.63;;;12.90;99.90;;;;;;5069524;28;20032;-81
2022/05/08 05:29:09;;;;;;;25.48;20.52;;;13.00;99.90;;;;;;5070337;28;20470;-83
2022/05/08 05:31:35;;;;;;;24.50;21.83;;;13.00;99.90;;;;;;5073352;28;20013;-82
2022/05/08 05:34:01;;;;;;;23.00;19.73;;;13.00;99.90;;;;;;5082208;23;20040;-84
2022/05/08 05:36:26;;;;;;;22.45;20.02;;;13.10;99.90;;;;;;5063173;28;20028;-85
2022/05/08 05:38:52;;;;;;;20.45;18.35;;;13.20;99.90;;;;;;5081139;28;20012;-85
2022/05/08 05:41:18;;;;;;;24.63;20.90;;;13.20;99.90;;;;;;5081553;28;20078;-84
2022/05/08 05:43:44;;;;;;;20.40;18.30;;;13.30;99.90;;;;;;5087528;28;20046;-86
2022/05/08 05:48:54;;;;;;;20.25;18.20;;;13.40;99.90;;;;;;5102663;28;20074;-85
2022/05/08 05:51:19;;;;;;;24.42;21.45;;;13.50;99.90;;;;;;5081803;28;20028;-84
2022/05/08 05:53:45;;;;;;;20.52;18.35;;;13.60;99.90;;;;;;5101734;28;20055;-85
2022/05/08 05:56:11;;;;;;;22.20;19.73;;;13.60;99.90;;;;;;5084301;28;20369;-85
2022/05/08 05:58:37;;;;;;;19.45;17.25;;;13.60;99.90;;;;;;5104228;28;20024;-84
2022/05/08 06:01:03;;;;;;;23.33;20.67;;;13.60;99.90;;;;;;5101242;28;20070;-84
2022/05/08 06:03:29;;;;;;;21.15;17.48;;;13.60;99.90;;;;;;5106104;28;20072;-85
2022/05/08 06:05:55;;;;;;;17.63;15.73;;;13.70;99.90;;;;;;5112387;28;20028;-84
2022/05/08 06:08:21;;;;;;;21.75;19.52;;;13.80;99.90;;;;;;5096614;28;20119;-85
2022/05/08 06:10:46;;;;;;;20.17;16.98;;;14.00;99.90;;;;;;5097867;28;20050;-85
2022/05/08 06:13:12;;;;;;;19.98;16.92;;;14.00;99.90;;;;;;5114403;28;20107;-84
2022/05/08 06:15:38;;;;;;;21.48;18.92;;;14.10;99.90;;;;;;5114557;28;20024;-85
2022/05/08 06:18:04;;;;;;;17.05;15.35;;;14.20;99.90;;;;;;5114847;28;20044;-84
2022/05/08 06:20:32;;;;;;;17.83;15.93;;;14.30;99.90;;;;;;5115552;28;20040;-84
2022/05/08 06:22:58;;;;;;;17.92;16.08;;;14.30;99.90;;;;;;5114093;28;20050;-84
2022/05/08 06:25:24;;;;;;;18.92;16.80;;;14.40;99.90;;;;;;5104591;28;20059;-84
2022/05/08 06:27:50;;;;;;;18.85;16.55;;;14.60;99.90;;;;;;5088932;28;20013;-84
2022/05/08 06:30:16;;;;;;;17.70;15.82;;;14.60;99.90;;;;;;5110917;28;20030;-85
2022/05/08 06:32:42;;;;;;;17.65;15.95;;;14.60;99.90;;;;;;5116380;28;20031;-86
2022/05/08 06:35:08;;;;;;;15.38;13.82;;;14.60;99.90;;;;;;5098164;28;20043;-85
2022/05/08 06:37:34;;;;;;;14.80;13.20;;;14.60;99.90;;;;;;5098355;28;20030;-85
2022/05/08 06:40:00;;;;;;;16.73;14.93;;;14.50;99.90;;;;;;5117060;28;20043;-85
2022/05/08 06:42:25;;;;;;;17.60;15.80;;;14.60;99.90;;;;;;5114898;28;20087;-85
2022/05/08 06:44:51;;;;;;;17.67;15.32;;;14.50;99.90;;;;;;5117097;28;20048;-83
2022/05/08 06:47:17;;;;;;;16.70;14.80;;;14.50;99.90;;;;;;5109416;28;20020;-84
2022/05/08 06:49:43;;;;;;;15.45;13.85;;;14.40;99.90;;;;;;5103235;28;20017;-85
2022/05/08 06:52:08;;;;;;;17.35;13.90;;;14.40;99.90;;;;;;5099268;28;20016;-85
2022/05/08 06:54:34;;;;;;;15.82;14.18;;;14.60;99.90;;;;;;5098560;28;20046;-85
2022/05/08 06:57:00;;;;;;;13.13;11.85;;;14.70;99.90;;;;;;5099005;28;20016;-85
2022/05/08 07:02:11;;;;;;;12.73;11.38;;;15.10;99.90;;;;;;5101194;28;20065;-85
2022/05/08 07:04:40;;;;;;;10.23;9.30;;;15.20;99.90;;;;;;5098719;28;20119;-85
2022/05/08 07:07:06;;;;;;;13.63;12.23;;;15.40;99.90;;;;;;5080371;28;20039;-85
2022/05/08 07:09:32;;;;;;;13.27;11.95;;;15.50;99.90;;;;;;5099844;28;20027;-86
2022/05/08 07:11:58;;;;;;;11.68;10.57;;;15.50;99.90;;;;;;5099531;28;20049;-85
2022/05/08 07:14:24;;;;;;;15.88;11.95;;;15.50;99.70;;;;;;5098594;28;20096;-84
2022/05/08 07:16:50;;;;;;;12.57;11.27;;;15.40;99.30;;;;;;5080603;28;20037;-86
2022/05/08 07:19:16;;;;;;;13.05;11.85;;;15.20;99.50;;;;;;5097825;28;20541;-86
2022/05/08 07:21:41;;;;;;;14.25;12.85;;;15.00;99.70;;;;;;5098568;28;20039;-85
2022/05/08 07:24:08;;;;;;;15.25;12.88;;;14.80;99.90;;;;;;5097488;28;20020;-85
2022/05/08 07:26:34;;;;;;;13.43;11.18;;;14.70;99.90;;;;;;5096723;28;20023;-85
2022/05/08 07:29:00;;;;;;;12.73;11.52;;;14.60;99.90;;;;;;5098499;28;20020;-85
2022/05/08 07:31:25;;;;;;;13.75;12.30;;;14.70;99.90;;;;;;5097563;28;20047;-85
2022/05/08 07:36:35;;;;;;;14.35;12.98;;;14.70;99.90;;;;;;5098169;28;20073;-85
2022/05/08 07:39:01;;;;;;;17.10;13.52;;;14.60;99.90;;;;;;5098368;28;20414;-84
2022/05/08 07:41:27;;;;;;;16.55;13.88;;;14.70;99.90;;;;;;5099468;28;20024;-85
2022/05/08 07:43:53;;;;;;;15.52;13.65;;;14.80;99.90;;;;;;5105151;28;20080;-85
2022/05/08 07:46:19;;;;;;;15.93;12.35;;;14.90;99.90;;;;;;5088180;28;20028;-85
2022/05/08 07:48:45;;;;;;;12.80;11.50;;;14.80;99.90;;;;;;5088108;28;20078;-85
2022/05/08 07:51:11;;;;;;;13.20;11.80;;;14.80;99.90;;;;;;5104908;28;20016;-84
2022/05/08 07:53:37;;;;;;;11.32;10.23;;;14.80;99.90;;;;;;5106956;28;20024;-85
2022/05/08 07:56:03;;;;;;;14.02;12.45;;;14.90;99.90;;;;;;5106482;28;20031;-84
2022/05/08 07:58:32;;;;;;;14.85;11.88;;;15.00;99.90;;;;;;5088993;28;20032;-85
2022/05/08 08:00:59;;;;;;;11.85;10.65;;;15.20;99.90;;;;;;5105435;28;20032;-85
2022/05/08 08:03:27;;;;;;;11.40;10.30;;;15.40;99.90;;;;;;5086896;28;20091;-85
2022/05/08 08:05:54;;;;;;;13.07;11.82;;;15.50;99.80;;;;;;5081478;28;20114;-85
2022/05/08 08:08:25;;;;;;;12.15;10.95;;;15.50;98.80;;;;;;5098867;28;20491;-85
2022/05/08 08:10:58;;;;;;;11.07;10.07;;;15.60;99.00;;;;;;5098443;28;20472;-85
2022/05/08 08:13:26;;;;;;;13.55;11.05;;;15.70;98.90;;;;;;5098054;28;20058;-85
2022/05/08 08:15:53;;;;;;;13.10;10.40;;;15.70;98.00;;;;;;5098500;28;20024;-84
2022/05/08 08:18:21;;;;;;;11.88;9.82;;;15.70;97.90;;;;;;5083527;28;20054;-85
2022/05/08 08:20:50;;;;;;;9.98;8.98;;;15.70;97.50;;;;;;5101292;28;20077;-85
2022/05/08 08:23:16;;;;;;;10.93;9.77;;;15.60;97.60;;;;;;5101259;28;20028;-85
2022/05/08 08:25:43;;;;;;;10.10;9.10;;;15.50;97.30;;;;;;5100213;28;20069;-86
2022/05/08 08:28:09;;;;;;;11.00;10.00;;;15.50;98.20;;;;;;5083637;28;20050;-86
2022/05/08 08:30:35;;;;;;;12.35;10.07;;;15.40;97.90;;;;;;5102330;28;20027;-85
2022/05/08 08:33:00;;;;;;;12.43;10.45;;;15.50;97.30;;;;;;5104642;28;20023;-84
2022/05/08 08:35:26;;;;;;;9.75;8.73;;;15.50;97.30;;;;;;5083780;28;20060;-85
2022/05/08 08:37:55;;;;;;;9.18;8.30;;;15.60;97.50;;;;;;5102000;28;20027;-85
2022/05/08 08:40:21;;;;;;;11.70;9.82;;;15.50;97.30;;;;;;5065540;28;20680;-85
2022/05/08 08:42:48;;;;;;;9.73;8.82;;;15.50;96.70;;;;;;5070672;28;20024;-85
2022/05/08 08:48:08;;;;;;;8.80;8.00;;;15.30;98.10;;;;;;5100413;28;20034;-85
2022/05/08 08:50:35;;;;;;;11.45;9.82;;;15.40;98.20;;;;;;5100299;28;20082;-86
2022/05/08 08:53:05;;;;;;;11.60;8.88;;;15.70;96.80;;;;;;5081884;28;20021;-85
2022/05/08 08:55:33;;;;;;;8.95;8.15;;;15.80;96.50;;;;;;5092431;28;20033;-85
2022/05/08 08:58:00;;;;;;;9.40;8.55;;;15.60;96.70;;;;;;5065306;28;20032;-85
2022/05/08 09:00:49;;;;;;;8.38;7.15;;;15.50;97.00;;;;;;5083179;28;20036;-85
2022/05/08 09:03:25;;;;;;;9.10;7.47;;;15.50;97.50;;;;;;5063560;28;20025;-84
2022/05/08 09:05:56;;;;;;;8.82;7.20;;;15.40;96.40;;;;;;5082393;28;20032;-84
2022/05/08 09:08:29;;;;;;;8.48;7.57;;;15.30;97.00;;;;;;5080258;28;20025;-85
2022/05/08 09:10:58;;;;;;;8.43;7.63;;;15.30;97.80;;;;;;5062590;28;20036;-85
2022/05/08 09:13:25;;;;;;;7.05;6.45;;;15.40;97.60;;;;;;5064254;28;20435;-85
2022/05/08 09:16:08;;;;;;;6.60;6.00;;;15.50;97.70;;;;;;5080865;28;20361;-85
2022/05/08 09:18:44;;;;;;;9.60;6.40;;;15.70;97.40;;;;;;5081033;28;20044;-85
2022/05/08 09:24:10;;;;;;;7.55;6.15;;;16.10;95.50;;;;;;5081659;28;20028;-85
2022/05/08 09:26:36;;;;;;;6.55;6.00;;;16.20;94.70;;;;;;5062848;28;20036;-86
2022/05/08 09:29:07;;;;;;;7.65;6.50;;;16.10;94.90;;;;;;5077411;28;20020;-86
2022/05/08 09:31:42;;;;;;;7.68;6.97;;;16.00;95.10;;;;;;5064851;28;20024;-85
2022/05/08 09:34:08;;;;;;;8.43;6.78;;;15.80;95.20;;;;;;5080583;28;20032;-85
2022/05/08 09:36:33;;;;;;;9.20;6.78;;;15.60;95.70;;;;;;5062889;28;20426;-85
2022/05/08 09:39:00;;;;;;;7.03;6.43;;;15.50;96.00;;;;;;5066057;28;20024;-85
2022/05/08 09:41:30;;;;;;;7.55;6.80;;;15.60;96.10;;;;;;5063736;28;20031;-86
2022/05/08 09:44:12;;;;;;;6.15;5.55;;;15.70;95.60;;;;;;5075685;28;20016;-85
2022/05/08 09:46:43;;;;;;;7.70;6.43;;;15.90;96.10;;;;;;5068384;28;20035;-86
2022/05/08 09:49:31;;;;;;;6.07;5.50;;;16.10;95.30;;;;;;5068517;28;20092;-85
2022/05/08 09:51:59;;;;;;;5.68;5.18;;;16.20;95.40;;;;;;5082099;28;20048;-85
2022/05/08 09:54:26;;;;;;;5.38;4.88;;;16.30;94.70;;;;;;5079110;28;20032;-84
2022/05/08 09:56:52;;;;;;;5.90;5.30;;;16.30;95.00;;;;;;5078805;28;20031;-85
2022/05/08 09:59:19;;;;;;;8.98;5.82;;;16.40;94.80;;;;;;5078652;28;20452;-85
2022/05/08 10:01:45;;;;;;;6.97;6.28;;;16.50;93.60;;;;;;5078980;28;20029;-85
2022/05/08 10:04:11;;;;;;;6.45;5.95;;;16.50;93.60;;;;;;5081338;28;20167;-85
2022/05/08 10:06:39;;;;;;;5.93;5.18;;;16.50;92.90;;;;;;5080765;28;20031;-86
2022/05/08 10:14:35;;;;;;;7.10;5.90;;;16.00;94.50;;;;;;5094492;28;20116;-85
2022/05/08 10:17:02;;;;;;;6.78;5.97;;;16.10;95.00;;;;;;5076211;28;20036;-85
2022/05/08 10:19:28;;;;;;;6.70;5.55;;;16.30;94.90;;;;;;5067808;28;20111;-85
2022/05/08 10:22:35;;;;;;;6.80;6.00;;;16.60;93.70;;;;;;5080260;28;20120;-85
2022/05/08 10:24:59;;;;;;;7.07;5.32;;;16.90;92.90;;;;;;5077439;28;20036;-85
2022/05/08 10:27:33;;;;;;;6.78;5.47;;;17.20;91.60;;;;;;5077219;28;20017;-86
2022/05/08 10:29:58;;;;;;;6.55;5.95;;;17.30;91.40;;;;;;5078748;28;20324;-85
2022/05/08 10:32:31;;;;;;;5.60;5.10;;;17.10;91.00;;;;;;5092094;28;20496;-85
2022/05/08 10:35:15;;;;;;;;;;;16.90;91.60;;;;;;5094328;28;20024;-85
2022/05/08 10:37:42;;;;;;;4.90;4.50;;;16.90;91.90;;;;;;5094765;28;19912;-85
2022/05/08 10:40:23;;;;;;;5.88;5.38;;;17.20;91.80;;;;;;5069862;28;20085;-85
2022/05/08 10:42:54;;;;;;;5.25;4.75;;;17.60;90.40;;;;;;5079787;28;20370;-85
2022/05/08 10:45:32;;;;;;;5.50;5.00;;;17.80;89.80;;;;;;5080435;28;20388;-84
2022/05/08 10:48:08;;;;;;;4.60;4.20;;;18.30;86.20;;;;;;5093469;28;20277;-85
2022/05/08 10:50:47;;;;;;;5.90;5.30;;;18.40;86.80;;;;;;5092879;28;20026;-85
2022/05/08 10:53:21;;;;;;;6.03;4.65;;;18.20;85.50;;;;;;5098302;28;20005;-85
2022/05/08 10:55:47;;;;;;;6.55;5.72;;;17.90;87.30;;;;;;5081069;28;20013;-84
2022/05/08 10:58:12;;;;;;;9.02;5.07;;;17.90;87.10;;;;;;5064070;28;20119;-85
2022/05/08 11:00:38;;;;;;;8.52;4.85;;;18.00;88.80;;;;;;5059887;28;20473;-85
2022/05/08 11:03:04;;;;;;;4.90;4.50;;;18.10;88.40;;;;;;5061242;28;20025;-85
2022/05/08 11:05:31;;;;;;;7.32;4.55;;;18.40;87.20;;;;;;5077916;28;20032;-86
2022/05/08 11:08:11;;;;;;;4.70;4.30;;;19.00;85.10;;;;;;5088634;28;20102;-85
2022/05/08 11:10:38;;;;;;;5.68;5.18;;;19.40;82.40;;;;;;5079535;28;20035;-86
2022/05/08 11:13:05;;;;;;;5.45;4.43;;;19.30;80.20;;;;;;5078468;28;20025;-85
2022/05/08 11:15:48;;;;;;;4.95;4.45;;;18.80;81.90;;;;;;5060238;28;20036;-85
2022/05/08 11:18:19;;;;;;;5.13;4.72;;;18.50;83.20;;;;;;5060793;28;20025;-85
2022/05/08 11:20:53;;;;;;;5.00;4.60;;;18.60;83.30;;;;;;5060870;28;20370;-85
2022/05/08 11:23:33;;;;;;;8.15;4.32;;;18.70;83.30;;;;;;5079529;28;20073;-86
2022/05/08 11:25:59;;;;;;;4.07;3.78;;;19.00;82.50;;;;;;5078556;28;20013;-85
2022/05/08 11:28:27;;;;;;;5.55;5.05;;;19.20;82.10;;;;;;5060079;28;20090;-85
2022/05/08 11:30:54;;;;;;;5.78;5.18;;;19.30;79.60;;;;;;5078067;28;20047;-85
2022/05/08 11:36:26;;;;;;;5.18;4.25;;;19.40;79.00;;;;;;5088374;22;20059;-85
2022/05/08 11:38:56;;;;;;;5.72;5.22;;;19.50;80.40;;;;;;5054444;28;20063;-84
2022/05/08 11:41:28;;;;;;;4.93;4.50;;;19.80;78.50;;;;;;5058273;28;20013;-84
2022/05/08 11:43:57;;;;;;;;;;;19.80;78.70;;;;;;5059205;28;20036;-84
2022/05/08 11:46:36;;;;;;;4.78;4.38;;;19.90;77.00;;;;;;5076659;28;19904;-84
2022/05/08 11:49:16;;;;;;;5.20;3.92;;;20.00;78.40;;;;;;5078421;28;20013;-84
2022/05/08 11:51:45;;;;;;;5.90;5.40;;;20.70;77.10;;;;;;5074832;28;20028;-83
2022/05/08 11:54:18;;;;;;;6.50;4.38;;;21.20;73.00;;;;;;5066035;28;20079;-84
2022/05/08 11:56:45;;;;;;;6.18;4.40;;;20.60;73.00;;;;;;5070751;28;20021;-81
2022/05/08 11:59:21;;;;;;;8.25;4.60;;;19.70;75.00;;;;;;5080291;28;20024;-81
2022/05/08 12:01:52;;;;;;;5.35;4.95;;;18.90;77.60;;;;;;5088529;28;20115;-82
2022/05/08 12:04:32;;;;;;;6.72;5.07;;;18.50;79.30;;;;;;5095505;28;20028;-82
2022/05/08 12:07:13;;;;;;;5.80;5.30;;;18.30;81.10;;;;;;5094314;28;20055;-82
2022/05/08 12:10:02;;;;;;;6.57;5.50;;;18.20;81.80;;;;;;5077952;28;20142;-82
2022/05/08 12:12:36;;;;;;;5.85;5.30;;;18.30;82.40;;;;;;5075725;28;20041;-82
2022/05/08 12:15:15;;;;;;;4.63;3.83;;;18.30;82.40;;;;;;5074155;28;20079;-82
2022/05/08 12:17:45;;;;;;;5.55;5.05;;;18.50;82.50;;;;;;5056947;28;20036;-81
2022/05/08 12:20:26;;;;;;;4.97;4.57;;;18.60;80.50;;;;;;5078150;28;20029;-82
2022/05/08 12:23:05;;;;;;;5.47;4.93;;;18.30;81.50;;;;;;5064140;28;20080;-81
2022/05/08 12:25:38;;;;;;;5.22;4.78;;;18.30;82.00;;;;;;5087867;28;20029;-82
2022/05/08 12:28:05;;;;;;;5.35;4.95;;;18.30;82.30;;;;;;5096122;28;20028;-81
2022/05/08 12:30:34;;;;;;;5.20;4.78;;;18.40;82.30;;;;;;5094064;28;20045;-83
2022/05/08 12:33:00;;;;;;;4.25;3.85;;;18.70;81.90;;;;;;5079028;28;20085;-85
2022/05/08 12:35:26;;;;;;;6.20;5.60;;;19.00;81.10;;;;;;5078136;28;20028;-84
2022/05/08 12:37:53;;;;;;;5.55;5.10;;;19.20;78.40;;;;;;5078766;28;20023;-85
2022/05/08 12:40:19;;;;;;;6.43;5.22;;;19.10;77.90;;;;;;5083293;28;20036;-84
2022/05/08 12:42:44;;;;;;;5.63;5.13;;;18.80;79.30;;;;;;5059019;28;20020;-84
2022/05/08 12:45:11;;;;;;;7.05;5.32;;;18.60;80.00;;;;;;5058984;28;20085;-85
2022/05/08 12:47:40;;;;;;;5.10;4.60;;;18.60;80.30;;;;;;5058844;28;20055;-85
2022/05/08 12:50:06;;;;;;;6.13;4.30;;;18.50;80.10;;;;;;5066988;28;20028;-84
2022/05/08 12:52:35;;;;;;;6.93;5.60;;;18.50;80.70;;;;;;5096078;28;20029;-84
2022/05/08 12:55:01;;;;;;;5.25;4.75;;;18.50;80.80;;;;;;5078451;28;20011;-85
2022/05/08 13:00:11;;;;;;;5.63;5.13;;;18.80;79.40;;;;;;5082065;28;20086;-83
2022/05/08 13:02:37;;;;;;;5.97;5.38;;;19.10;78.50;;;;;;5066178;28;20021;-83
2022/05/08 13:05:03;;;;;;;4.57;4.25;;;19.30;76.80;;;;;;5067370;28;20032;-82
2022/05/08 13:07:29;;;;;;;5.78;5.28;;;19.50;76.70;;;;;;5046329;28;20139;-83
2022/05/08 13:09:54;;;;;;;5.93;5.00;;;19.80;75.80;;;;;;5065591;28;20029;-83
2022/05/08 13:12:20;;;;;;;5.03;4.63;;;19.80;75.00;;;;;;5065724;28;20017;-83